地図

経路データ

SID SEASON NUMBER BASIN SUBBASIN NAME ISO_TIME NATURE LAT LON WMO_WIND WMO_PRES WMO_AGENCY TRACK_TYPE DIST2LAND LANDFALL IFLAG USA_AGENCY USA_ATCF_ID USA_LAT USA_LON USA_RECORD USA_STATUS USA_WIND USA_PRES USA_SSHS USA_R34_NE USA_R34_SE USA_R34_SW USA_R34_NW USA_R50_NE USA_R50_SE USA_R50_SW USA_R50_NW USA_R64_NE USA_R64_SE USA_R64_SW USA_R64_NW USA_POCI USA_ROCI USA_RMW USA_EYE TOKYO_LAT TOKYO_LON TOKYO_GRADE TOKYO_WIND TOKYO_PRES TOKYO_R50_DIR TOKYO_R50_LONG TOKYO_R50_SHORT TOKYO_R30_DIR TOKYO_R30_LONG TOKYO_R30_SHORT TOKYO_LAND CMA_LAT CMA_LON CMA_CAT CMA_WIND CMA_PRES HKO_LAT HKO_LON HKO_CAT HKO_WIND HKO_PRES NEWDELHI_LAT NEWDELHI_LON NEWDELHI_GRADE NEWDELHI_WIND NEWDELHI_PRES NEWDELHI_CI NEWDELHI_DP NEWDELHI_POCI REUNION_LAT REUNION_LON REUNION_TYPE REUNION_WIND REUNION_PRES REUNION_TNUM REUNION_CI REUNION_RMW REUNION_R34_NE REUNION_R34_SE REUNION_R34_SW REUNION_R34_NW REUNION_R50_NE REUNION_R50_SE REUNION_R50_SW REUNION_R50_NW REUNION_R64_NE REUNION_R64_SE REUNION_R64_SW REUNION_R64_NW BOM_LAT BOM_LON BOM_TYPE BOM_WIND BOM_PRES BOM_TNUM BOM_CI BOM_RMW BOM_R34_NE BOM_R34_SE BOM_R34_SW BOM_R34_NW BOM_R50_NE BOM_R50_SE BOM_R50_SW BOM_R50_NW BOM_R64_NE BOM_R64_SE BOM_R64_SW BOM_R64_NW BOM_ROCI BOM_POCI BOM_EYE BOM_POS_METHOD BOM_PRES_METHOD NADI_LAT NADI_LON NADI_CAT NADI_WIND NADI_PRES WELLINGTON_LAT WELLINGTON_LON WELLINGTON_WIND WELLINGTON_PRES DS824_LAT DS824_LON DS824_STAGE DS824_WIND DS824_PRES TD9636_LAT TD9636_LON TD9636_STAGE TD9636_WIND TD9636_PRES TD9635_LAT TD9635_LON TD9635_WIND TD9635_PRES TD9635_ROCI NEUMANN_LAT NEUMANN_LON NEUMANN_CLASS NEUMANN_WIND NEUMANN_PRES MLC_LAT MLC_LON MLC_CLASS MLC_WIND MLC_PRES USA_GUST BOM_GUST BOM_GUST_PER REUNION_GUST REUNION_GUST_PER USA_SEAHGT USA_SEARAD_NE USA_SEARAD_SE USA_SEARAD_SW USA_SEARAD_NW STORM_SPEED STORM_DIR
1999236N22292 1999 71 NA NA DENNIS 1999-08-24 00:00:00 TS 21.5000 -67.7000 30 1009 hurdat_atl main 297 287 O_____________ hurdat_atl AL051999 21.5000 -67.7000 TD 30 1009 -1 12 295
1999236N22292 1999 71 NA NA DENNIS 1999-08-24 03:00:00 TS 21.7579 -68.3046 main 298 285 P_____________ AL051999 21.7579 -68.3046 TD 30 1009 -1 12 294
1999236N22292 1999 71 NA NA DENNIS 1999-08-24 06:00:00 TS 22.0000 -68.9000 30 1009 hurdat_atl main 291 287 O_____________ hurdat_atl AL051999 22.0000 -68.9000 TD 30 1009 -1 12 293
1999236N22292 1999 71 NA NA DENNIS 1999-08-24 09:00:00 TS 22.2149 -69.4726 main 291 287 P_____________ AL051999 22.2149 -69.4726 TD 32 1009 -1 11 291
1999236N22292 1999 71 NA NA DENNIS 1999-08-24 12:00:00 TS 22.4000 -70.0000 35 1009 hurdat_atl main 297 295 O_____________ hurdat_atl AL051999 22.4000 -70.0000 TS 35 1009 0 10 291
1999236N22292 1999 71 NA NA DENNIS 1999-08-24 15:00:00 TS 22.5724 -70.4875 main 301 273 P_____________ AL051999 22.5724 -70.4875 TS 37 1009 0 9 290
1999236N22292 1999 71 NA NA DENNIS 1999-08-24 18:00:00 TS 22.7000 -70.9000 40 1009 hurdat_atl main 273 250 O_____________ hurdat_atl AL051999 22.7000 -70.9000 TS 40 1009 0 7 285
1999236N22292 1999 71 NA NA DENNIS 1999-08-24 21:00:00 TS 22.7574 -71.2377 main 257 236 P_____________ AL051999 22.7574 -71.2377 TS 40 1008 0 6 280
1999236N22292 1999 71 NA NA DENNIS 1999-08-25 00:00:00 TS 22.8000 -71.5000 40 1008 hurdat_atl main 236 229 O_____________ hurdat_atl AL051999 22.8000 -71.5000 TS 40 1008 0 5 287
1999236N22292 1999 71 NA NA DENNIS 1999-08-25 03:00:00 TS 22.8925 -71.7300 main 232 226 P_____________ AL051999 22.8925 -71.7300 TS 40 1007 0 4 298
1999236N22292 1999 71 NA NA DENNIS 1999-08-25 06:00:00 TS 23.0000 -71.9000 40 1007 hurdat_atl main 230 226 O_____________ hurdat_atl AL051999 23.0000 -71.9000 TS 40 1007 0 3 308
1999236N22292 1999 71 NA NA DENNIS 1999-08-25 09:00:00 TS 23.1000 -72.0150 main 236 231 P_____________ AL051999 23.1000 -72.0150 TS 42 1005 0 3 317
1999236N22292 1999 71 NA NA DENNIS 1999-08-25 12:00:00 TS 23.2000 -72.1000 45 1004 hurdat_atl main 242 242 O_____________ hurdat_atl AL051999 23.2000 -72.1000 TS 45 1004 0 3 320
1999236N22292 1999 71 NA NA DENNIS 1999-08-25 15:00:00 TS 23.3000 -72.2000 main 248 248 P_____________ AL051999 23.3000 -72.2000 TS 50 1002 0 3 317
1999236N22292 1999 71 NA NA DENNIS 1999-08-25 18:00:00 TS 23.4000 -72.3000 55 1000 hurdat_atl main 256 256 O_____________ hurdat_atl AL051999 23.4000 -72.3000 TS 55 1000 0 3 321
1999236N22292 1999 71 NA NA DENNIS 1999-08-25 21:00:00 TS 23.4999 -72.3701 main 264 264 P_____________ AL051999 23.4999 -72.3701 TS 57 999 0 3 318
1999236N22292 1999 71 NA NA DENNIS 1999-08-26 00:00:00 TS 23.6000 -72.5000 60 998 hurdat_atl main 273 271 O_____________ hurdat_atl AL051999 23.6000 -72.5000 TS 60 998 0 4 297
1999236N22292 1999 71 NA NA DENNIS 1999-08-26 03:00:00 TS 23.6926 -72.7775 main 280 279 P_____________ AL051999 23.6926 -72.7775 TS 62 996 0 6 290
1999236N22292 1999 71 NA NA DENNIS 1999-08-26 06:00:00 TS 23.8000 -73.1000 65 995 hurdat_atl main 290 290 O_____________ hurdat_atl AL051999 23.8000 -73.1000 HU 65 995 1 6 295
1999236N22292 1999 71 NA NA DENNIS 1999-08-26 09:00:00 TS 23.9425 -73.3650 main 302 302 P_____________ AL051999 23.9425 -73.3650 HU 65 995 1 5 303
1999236N22292 1999 71 NA NA DENNIS 1999-08-26 12:00:00 TS 24.1000 -73.6000 65 995 hurdat_atl main 326 326 O_____________ hurdat_atl AL051999 24.1000 -73.6000 HU 65 995 1 5 307
1999236N22292 1999 71 NA NA DENNIS 1999-08-26 15:00:00 TS 24.2424 -73.8076 main 340 340 P_____________ AL051999 24.2424 -73.8076 HU 67 992 1 5 310
1999236N22292 1999 71 NA NA DENNIS 1999-08-26 18:00:00 TS 24.4000 -74.0000 70 990 hurdat_atl main 366 353 O_____________ hurdat_atl AL051999 24.4000 -74.0000 HU 70 990 1 5 316
1999236N22292 1999 71 NA NA DENNIS 1999-08-26 21:00:00 TS 24.5924 -74.1851 main 353 334 P_____________ AL051999 24.5924 -74.1851 HU 67 991 1 5 318
1999236N22292 1999 71 NA NA DENNIS 1999-08-27 00:00:00 TS 24.8000 -74.4000 65 993 hurdat_atl main 334 307 O_____________ hurdat_atl AL051999 24.8000 -74.4000 HU 65 993 1 6 311
1999236N22292 1999 71 NA NA DENNIS 1999-08-27 03:00:00 TS 25.0001 -74.6925 main 307 283 P_____________ AL051999 25.0001 -74.6925 HU 65 990 1 7 306
1999236N22292 1999 71 NA NA DENNIS 1999-08-27 06:00:00 TS 25.2000 -75.0000 65 988 hurdat_atl main 283 261 O_____________ hurdat_atl AL051999 25.2000 -75.0000 HU 65 988 1 7 308
1999236N22292 1999 71 NA NA DENNIS 1999-08-27 09:00:00 TS 25.4075 -75.2650 main 261 252 P_____________ AL051999 25.4075 -75.2650 HU 65 988 1 6 312
1999236N22292 1999 71 NA NA DENNIS 1999-08-27 12:00:00 TS 25.6000 -75.5000 65 988 hurdat_atl main 252 238 O_____________ hurdat_atl AL051999 25.6000 -75.5000 HU 65 988 1 5 311
1999236N22292 1999 71 NA NA DENNIS 1999-08-27 15:00:00 TS 25.7650 -75.7151 main 242 228 P_____________ AL051999 25.7650 -75.7151 HU 65 987 1 5 310
1999236N22292 1999 71 NA NA DENNIS 1999-08-27 18:00:00 TS 25.9000 -75.9000 65 987 hurdat_atl main 228 219 O_____________ hurdat_atl AL051999 25.9000 -75.9000 HU 65 987 1 4 308
1999236N22292 1999 71 NA NA DENNIS 1999-08-27 21:00:00 TS 25.9924 -76.0427 main 224 212 P_____________ AL051999 25.9924 -76.0427 HU 67 984 1 3 307
1999236N22292 1999 71 NA NA DENNIS 1999-08-28 00:00:00 TS 26.1000 -76.2000 70 982 hurdat_atl main 212 201 O_____________ hurdat_atl AL051999 26.1000 -76.2000 HU 70 982 1 4 308
1999236N22292 1999 71 NA NA DENNIS 1999-08-28 03:00:00 TS 26.2610 -76.4245 main 208 201 P_____________ AL051999 26.2610 -76.4245 HU 72 979 1 6 312
1999236N22292 1999 71 NA NA DENNIS 1999-08-28 06:00:00 TS 26.5000 -76.7000 75 976 hurdat_atl main 203 197 O_____________ hurdat_atl AL051999 26.5000 -76.7000 HU 75 976 1 7 315
1999236N22292 1999 71 NA NA DENNIS 1999-08-28 07:00:00 TS 26.6000 -76.8000 75 976 hurdat_atl main 206 206 O_____________ hurdat_atl AL051999 26.6000 -76.8000 L HU 75 976 1 7 327
1999236N22292 1999 71 NA NA DENNIS 1999-08-28 09:00:00 TS 26.7999 -76.9204 main 219 219 P_____________ AL051999 26.7999 -76.9204 HU 78 974 1 6 340
1999236N22292 1999 71 NA NA DENNIS 1999-08-28 12:00:00 TS 27.1000 -77.0000 85 973 hurdat_atl main 244 244 O_____________ hurdat_atl AL051999 27.1000 -77.0000 HU 85 973 2 6 342
1999236N22292 1999 71 NA NA DENNIS 1999-08-28 15:00:00 TS 27.4000 -77.1378 main 272 268 P_____________ AL051999 27.4000 -77.1378 HU 87 971 2 7 336
1999236N22292 1999 71 NA NA DENNIS 1999-08-28 18:00:00 TS 27.7000 -77.3000 90 969 hurdat_atl main 284 275 O_____________ hurdat_atl AL051999 27.7000 -77.3000 HU 90 969 2 7 331
1999236N22292 1999 71 NA NA DENNIS 1999-08-28 21:00:00 TS 27.9926 -77.5075 main 279 270 P_____________ AL051999 27.9926 -77.5075 HU 90 969 2 7 329
1999236N22292 1999 71 NA NA DENNIS 1999-08-29 00:00:00 TS 28.3000 -77.7000 90 969 hurdat_atl main 274 263 O_____________ hurdat_atl AL051999 28.3000 -77.7000 HU 90 969 2 7 339
1999236N22292 1999 71 NA NA DENNIS 1999-08-29 03:00:00 TS 28.6274 -77.7930 main 263 257 P_____________ AL051999 28.6274 -77.7930 HU 90 969 2 7 346
1999236N22292 1999 71 NA NA DENNIS 1999-08-29 06:00:00 TS 29.0000 -77.9000 90 970 hurdat_atl main 259 249 O_____________ hurdat_atl AL051999 29.0000 -77.9000 HU 90 970 2 9 338
1999236N22292 1999 71 NA NA DENNIS 1999-08-29 09:00:00 TS 29.4352 -78.1644 main 245 245 P_____________ AL051999 29.4352 -78.1644 HU 90 970 2 10 334
1999236N22292 1999 71 NA NA DENNIS 1999-08-29 12:00:00 TS 29.9000 -78.4000 90 971 hurdat_atl main 256 256 O_____________ hurdat_atl AL051999 29.9000 -78.4000 HU 90 971 2 9 344
1999236N22292 1999 71 NA NA DENNIS 1999-08-29 15:00:00 TS 30.3349 -78.4601 main 267 251 P_____________ AL051999 30.3349 -78.4601 HU 90 969 2 9 0
1999236N22292 1999 71 NA NA DENNIS 1999-08-29 18:00:00 TS 30.8000 -78.4000 90 967 hurdat_atl main 251 215 O_____________ hurdat_atl AL051999 30.8000 -78.4000 HU 90 967 2 10 8
1999236N22292 1999 71 NA NA DENNIS 1999-08-29 21:00:00 TS 31.3500 -78.2876 main 215 172 P_____________ AL051999 31.3500 -78.2876 HU 90 965 2 11 13
1999236N22292 1999 71 NA NA DENNIS 1999-08-30 00:00:00 TS 31.9000 -78.1000 90 964 hurdat_atl main 172 150 O_____________ hurdat_atl AL051999 31.9000 -78.1000 HU 90 964 2 11 17
1999236N22292 1999 71 NA NA DENNIS 1999-08-30 03:00:00 TS 32.3721 -77.9093 main 150 128 P_____________ AL051999 32.3721 -77.9093 HU 90 963 2 10 25
1999236N22292 1999 71 NA NA DENNIS 1999-08-30 06:00:00 TS 32.8000 -77.6000 90 962 hurdat_atl main 128 107 O_____________ hurdat_atl AL051999 32.8000 -77.6000 HU 90 962 2 11 37
1999236N22292 1999 71 NA NA DENNIS 1999-08-30 09:00:00 TS 33.2145 -77.1396 main 114 106 P_____________ AL051999 33.2145 -77.1396 HU 87 963 2 12 49
1999236N22292 1999 71 NA NA DENNIS 1999-08-30 12:00:00 TS 33.6000 -76.5000 85 965 hurdat_atl main 122 104 O_____________ hurdat_atl AL051999 33.6000 -76.5000 HU 85 965 2 14 59
1999236N22292 1999 71 NA NA DENNIS 1999-08-30 15:00:00 TS 33.9659 -75.6578 main 107 107 P_____________ AL051999 33.9659 -75.6578 HU 85 965 2 16 64
1999236N22292 1999 71 NA NA DENNIS 1999-08-30 18:00:00 TS 34.3000 -74.8000 85 966 hurdat_atl main 152 152 O_____________ hurdat_atl AL051999 34.3000 -74.8000 HU 85 966 2 14 62
1999236N22292 1999 71 NA NA DENNIS 1999-08-30 21:00:00 TS 34.6370 -74.1249 main 183 176 P_____________ AL051999 34.6370 -74.1249 HU 82 968 1 12 59
1999236N22292 1999 71 NA NA DENNIS 1999-08-31 00:00:00 TS 34.9000 -73.6000 80 971 hurdat_atl main 199 199 O_____________ hurdat_atl AL051999 34.9000 -73.6000 HU 80 971 1 9 63
1999236N22292 1999 71 NA NA DENNIS 1999-08-31 03:00:00 TS 35.0372 -73.1669 main 226 226 P_____________ AL051999 35.0372 -73.1669 HU 80 974 1 6 71
1999236N22292 1999 71 NA NA DENNIS 1999-08-31 06:00:00 TS 35.1000 -72.9000 80 977 hurdat_atl main 247 247 O_____________ hurdat_atl AL051999 35.1000 -72.9000 HU 80 977 1 4 68
1999236N22292 1999 71 NA NA DENNIS 1999-08-31 09:00:00 TS 35.1722 -72.7598 main 252 252 P_____________ AL051999 35.1722 -72.7598 HU 77 980 1 1 37
1999236N22292 1999 71 NA NA DENNIS 1999-08-31 12:00:00 TS 35.2000 -72.8000 75 983 hurdat_atl main 252 235 O_____________ hurdat_atl AL051999 35.2000 -72.8000 HU 75 983 1 2 264
1999236N22292 1999 71 NA NA DENNIS 1999-08-31 15:00:00 TS 35.1502 -73.0202 main 235 213 P_____________ AL051999 35.1502 -73.0202 HU 72 983 1 4 256
1999236N22292 1999 71 NA NA DENNIS 1999-08-31 18:00:00 TS 35.1000 -73.3000 70 984 hurdat_atl main 213 192 O_____________ hurdat_atl AL051999 35.1000 -73.3000 HU 70 984 1 4 271
1999236N22292 1999 71 NA NA DENNIS 1999-08-31 21:00:00 TS 35.1575 -73.5024 main 192 184 P_____________ AL051999 35.1575 -73.5024 HU 65 985 1 3 292
1999236N22292 1999 71 NA NA DENNIS 1999-09-01 00:00:00 TS 35.2000 -73.6000 60 986 hurdat_atl main 184 184 O_____________ hurdat_atl AL051999 35.2000 -73.6000 TS 60 986 0 1 0
1999236N22292 1999 71 NA NA DENNIS 1999-09-01 03:00:00 TS 35.0775 -73.5149 main 196 196 P_____________ AL051999 35.0775 -73.5149 TS 57 986 0 3 140
1999236N22292 1999 71 NA NA DENNIS 1999-09-01 06:00:00 TS 35.0000 -73.4000 55 987 hurdat_atl main 209 201 O_____________ hurdat_atl AL051999 35.0000 -73.4000 TS 55 987 0 1 37
1999236N22292 1999 71 NA NA DENNIS 1999-09-01 09:00:00 TS 35.1775 -73.4125 main 201 185 P_____________ AL051999 35.1775 -73.4125 TS 52 988 0 4 349
1999236N22292 1999 71 NA NA DENNIS 1999-09-01 12:00:00 TS 35.4000 -73.5000 50 989 hurdat_atl main 185 165 O_____________ hurdat_atl AL051999 35.4000 -73.5000 TS 50 989 0 4 327
1999236N22292 1999 71 NA NA DENNIS 1999-09-01 15:00:00 TS 35.4876 -73.6650 main 165 156 P_____________ AL051999 35.4876 -73.6650 TS 50 988 0 3 292
1999236N22292 1999 71 NA NA DENNIS 1999-09-01 18:00:00 TS 35.5000 -73.8000 50 988 hurdat_atl main 156 156 O_____________ hurdat_atl AL051999 35.5000 -73.8000 TS 50 988 0 1 261
1999236N22292 1999 71 NA NA DENNIS 1999-09-01 21:00:00 TS 35.4725 -73.7800 main 156 156 P_____________ AL051999 35.4725 -73.7800 TS 50 988 0 1 143
1999236N22292 1999 71 NA NA DENNIS 1999-09-02 00:00:00 TS 35.4000 -73.7000 50 988 hurdat_atl main 168 168 O_____________ hurdat_atl AL051999 35.4000 -73.7000 TS 50 988 0 2 145
1999236N22292 1999 71 NA NA DENNIS 1999-09-02 03:00:00 TS 35.3000 -73.6349 main 180 180 P_____________ AL051999 35.3000 -73.6349 TS 47 988 0 2 157
1999236N22292 1999 71 NA NA DENNIS 1999-09-02 06:00:00 TS 35.2000 -73.6000 45 989 hurdat_atl main 184 184 O_____________ hurdat_atl AL051999 35.2000 -73.6000 TS 45 989 0 1 178
1999236N22292 1999 71 NA NA DENNIS 1999-09-02 09:00:00 TS 35.1575 -73.6275 main 184 180 P_____________ AL051999 35.1575 -73.6275 TS 45 989 0 1 217
1999236N22292 1999 71 NA NA DENNIS 1999-09-02 12:00:00 TS 35.1000 -73.7000 45 989 hurdat_atl main 180 177 O_____________ hurdat_atl AL051999 35.1000 -73.7000 TS 45 989 0 2 220
1999236N22292 1999 71 NA NA DENNIS 1999-09-02 15:00:00 TS 34.9875 -73.8000 main 177 176 P_____________ AL051999 34.9875 -73.8000 TS 45 989 0 3 208
1999236N22292 1999 71 NA NA DENNIS 1999-09-02 18:00:00 TS 34.8000 -73.9000 45 990 hurdat_atl main 182 182 O_____________ hurdat_atl AL051999 34.8000 -73.9000 TS 45 990 0 5 196
1999236N22292 1999 71 NA NA DENNIS 1999-09-02 21:00:00 TS 34.5225 -73.9575 main 197 197 P_____________ AL051999 34.5225 -73.9575 TS 45 989 0 6 188
1999236N22292 1999 71 NA NA DENNIS 1999-09-03 00:00:00 TS 34.2000 -74.0000 45 989 hurdat_atl main 219 219 O_____________ hurdat_atl AL051999 34.2000 -74.0000 TS 45 989 0 6 189
1999236N22292 1999 71 NA NA DENNIS 1999-09-03 03:00:00 TS 33.8850 -74.0727 main 230 230 P_____________ AL051999 33.8850 -74.0727 TS 45 989 0 6 188
1999236N22292 1999 71 NA NA DENNIS 1999-09-03 06:00:00 TS 33.6000 -74.1000 45 989 hurdat_atl main 248 248 O_____________ hurdat_atl AL051999 33.6000 -74.1000 TS 45 989 0 5 177
1999236N22292 1999 71 NA NA DENNIS 1999-09-03 09:00:00 TS 33.3700 -74.0148 main 269 269 P_____________ AL051999 33.3700 -74.0148 TS 45 988 0 4 157
1999236N22292 1999 71 NA NA DENNIS 1999-09-03 12:00:00 TS 33.2000 -73.9000 45 988 hurdat_atl main 290 290 O_____________ hurdat_atl AL051999 33.2000 -73.9000 TS 45 988 0 3 152
1999236N22292 1999 71 NA NA DENNIS 1999-09-03 15:00:00 TS 33.0625 -73.8201 main 305 305 P_____________ AL051999 33.0625 -73.8201 TS 47 987 0 2 157
1999236N22292 1999 71 NA NA DENNIS 1999-09-03 18:00:00 TS 33.0000 -73.8000 50 987 hurdat_atl main 312 312 O_____________ hurdat_atl AL051999 33.0000 -73.8000 TS 50 987 0 1 220
1999236N22292 1999 71 NA NA DENNIS 1999-09-03 21:00:00 TS 33.0199 -73.8551 main 305 291 P_____________ AL051999 33.0199 -73.8551 TS 50 987 0 2 301
1999236N22292 1999 71 NA NA DENNIS 1999-09-04 00:00:00 TS 33.1000 -74.0000 50 987 hurdat_atl main 291 269 O_____________ hurdat_atl AL051999 33.1000 -74.0000 TS 50 987 0 3 296
1999236N22292 1999 71 NA NA DENNIS 1999-09-04 03:00:00 TS 33.1624 -74.2054 main 269 241 P_____________ AL051999 33.1624 -74.2054 TS 52 986 0 5 295
1999236N22292 1999 71 NA NA DENNIS 1999-09-04 06:00:00 TS 33.3000 -74.5000 55 986 hurdat_atl main 241 191 O_____________ hurdat_atl AL051999 33.3000 -74.5000 TS 55 986 0 7 306
1999236N22292 1999 71 NA NA DENNIS 1999-09-04 09:00:00 TS 33.5701 -74.8847 main 191 141 P_____________ AL051999 33.5701 -74.8847 TS 55 986 0 9 312
1999236N22292 1999 71 NA NA DENNIS 1999-09-04 12:00:00 TS 33.9000 -75.3000 55 986 hurdat_atl main 141 99 O_____________ hurdat_atl AL051999 33.9000 -75.3000 TS 55 986 0 9 316
1999236N22292 1999 71 NA NA DENNIS 1999-09-04 15:00:00 TS 34.1997 -75.6266 main 99 50 P_____________ AL051999 34.1997 -75.6266 TS 57 986 0 8 316
1999236N22292 1999 71 NA NA DENNIS 1999-09-04 18:00:00 TS 34.5000 -76.0000 60 986 hurdat_atl main 50 0 O_____________ hurdat_atl AL051999 34.5000 -76.0000 TS 60 986 0 9 310
1999236N22292 1999 71 NA NA DENNIS 1999-09-04 21:00:00 TS 34.8000 -76.5000 60 984 hurdat_atl main 0 0 O_____________ hurdat_atl AL051999 34.8000 -76.5000 L TS 60 984 0 8 307
1999236N22292 1999 71 NA NA DENNIS 1999-09-05 00:00:00 TS 35.0000 -76.8000 50 985 hurdat_atl main 0 0 O_____________ hurdat_atl AL051999 35.0000 -76.8000 TS 50 985 0 7 307
1999236N22292 1999 71 NA NA DENNIS 1999-09-05 03:00:00 TS 35.2329 -77.2059 main 0 0 P_____________ AL051999 35.2329 -77.2059 TS 42 987 0 9 304
1999236N22292 1999 71 NA NA DENNIS 1999-09-05 06:00:00 TS 35.5000 -77.7000 35 989 hurdat_atl main 0 0 O_____________ hurdat_atl AL051999 35.5000 -77.7000 TS 35 989 0 11 305
1999236N22292 1999 71 NA NA DENNIS 1999-09-05 09:00:00 TS 35.8304 -78.2716 main 0 0 P_____________ AL051999 35.8304 -78.2716 TS 32 991 -1 11 304
1999236N22292 1999 71 NA NA DENNIS 1999-09-05 12:00:00 TS 36.1000 -78.8000 30 994 hurdat_atl main 0 0 O_____________ hurdat_atl AL051999 36.1000 -78.8000 TD 30 994 -1 8 297
1999236N22292 1999 71 NA NA DENNIS 1999-09-05 15:00:00 TS 36.1946 -79.1457 main 0 0 P_____________ AL051999 36.1946 -79.1457 TD 27 996 -1 5 282
1999236N22292 1999 71 NA NA DENNIS 1999-09-05 18:00:00 TS 36.2000 -79.4000 25 998 hurdat_atl main 0 0 O_____________ hurdat_atl AL051999 36.2000 -79.4000 TD 25 998 -1 4 270
1999236N22292 1999 71 NA NA DENNIS 1999-09-05 21:00:00 TS 36.1925 -79.6802 main 0 0 P_____________ AL051999 36.1925 -79.6802 TD 25 999 -1 4 270
1999236N22292 1999 71 NA NA DENNIS 1999-09-06 00:00:00 TS 36.2000 -79.9000 25 1000 hurdat_atl main 0 0 O_____________ hurdat_atl AL051999 36.2000 -79.9000 TD 25 1000 -1 3 282
1999236N22292 1999 71 NA NA DENNIS 1999-09-06 03:00:00 TS 36.2549 -80.0523 main 0 0 P_____________ AL051999 36.2549 -80.0523 TD 22 1002 -1 3 320
1999236N22292 1999 71 NA NA DENNIS 1999-09-06 06:00:00 TS 36.4000 -80.1000 20 1004 hurdat_atl main 0 0 O_____________ hurdat_atl AL051999 36.4000 -80.1000 TD 20 1004 -1 4 0
1999236N22292 1999 71 NA NA DENNIS 1999-09-06 09:00:00 TS 36.6625 -80.0450 main 0 0 P_____________ AL051999 36.6625 -80.0450 TD 20 1004 -1 6 15
1999236N22292 1999 71 NA NA DENNIS 1999-09-06 12:00:00 TS 37.0000 -79.9000 20 1005 hurdat_atl main 0 0 O_____________ hurdat_atl AL051999 37.0000 -79.9000 TD 20 1005 -1 7 19
1999236N22292 1999 71 NA NA DENNIS 1999-09-06 15:00:00 TS 37.3347 -79.7593 main 0 0 P_____________ AL051999 37.3347 -79.7593 TD 20 1006 -1 8 24
1999236N22292 1999 71 NA NA DENNIS 1999-09-06 18:00:00 TS 37.7000 -79.5000 20 1008 hurdat_atl main 0 0 O_____________ hurdat_atl AL051999 37.7000 -79.5000 TD 20 1008 -1 8 40
1999236N22292 1999 71 NA NA DENNIS 1999-09-06 21:00:00 TS 37.9798 -79.0788 main 0 0 P_____________ AL051999 37.9798 -79.0788 TD 20 1008 -1 11 45
1999236N22292 1999 71 NA NA DENNIS 1999-09-07 00:00:00 TS 38.5000 -78.5000 20 1009 hurdat_atl main 0 0 O_____________ hurdat_atl AL051999 38.5000 -78.5000 TD 20 1009 -1 20 35
1999236N22292 1999 71 NA NA DENNIS 1999-09-07 03:00:00 TS 39.5693 -77.6332 main 0 0 P_____________ AL051999 39.5693 -77.6332 TD 20 1008 -1 26 27
1999236N22292 1999 71 NA NA DENNIS 1999-09-07 06:00:00 TS 40.8000 -77.0000 20 1008 hurdat_atl main 0 0 O_____________ hurdat_atl AL051999 40.8000 -77.0000 TD 20 1008 -1 23 8
1999236N22292 1999 71 NA NA DENNIS 1999-09-07 09:00:00 TS 41.8624 -77.2279 main 0 0 P_____________ AL051999 41.8624 -77.2279 TD 20 1007 -1 20 345
1999236N22292 1999 71 NA NA DENNIS 1999-09-07 12:00:00 TS 42.7000 -77.7000 20 1007 hurdat_atl main 0 0 O_____________ hurdat_atl AL051999 42.7000 -77.7000 TD 20 1007 -1 15 342
1999236N22292 1999 71 NA NA DENNIS 1999-09-07 15:00:00 TS 43.2417 -77.8441 main 0 0 P_____________ AL051999 43.2417 -77.8441 TD 20 1006 -1 8 1
1999236N22292 1999 71 NA NA DENNIS 1999-09-07 18:00:00 ET 43.5000 -77.7000 20 1006 hurdat_atl main 0 0 O_____________ hurdat_atl AL051999 43.5000 -77.7000 EX 20 1006 -4 6 61
1999236N22292 1999 71 NA NA DENNIS 1999-09-07 21:00:00 ET 43.5236 -77.1511 main 0 0 P_____________ AL051999 43.5236 -77.1511 EX 20 1006 -4 9 90
1999236N22292 1999 71 NA NA DENNIS 1999-09-08 00:00:00 ET 43.5000 -76.5000 20 1006 hurdat_atl main 0 0 O_____________ hurdat_atl AL051999 43.5000 -76.5000 EX 20 1006 -4 8 78
1999236N22292 1999 71 NA NA DENNIS 1999-09-08 03:00:00 ET 43.6817 -76.1343 main 0 0 P_____________ AL051999 43.6817 -76.1343 EX 20 1006 -4 7 45
1999236N22292 1999 71 NA NA DENNIS 1999-09-08 06:00:00 ET 44.0000 -75.8000 20 1006 hurdat_atl main 0 0 O_____________ hurdat_atl AL051999 44.0000 -75.8000 EX 20 1006 -4 10 42
1999236N22292 1999 71 NA NA DENNIS 1999-09-08 09:00:00 ET 44.4432 -75.1909 main 0 0 P_____________ AL051999 44.4432 -75.1909 EX 20 1006 -4 11 38
1999236N22292 1999 71 NA NA DENNIS 1999-09-08 12:00:00 ET 44.9000 -74.8000 20 1006 hurdat_atl main 0 0 O_____________ hurdat_atl AL051999 44.9000 -74.8000 EX 20 1006 -4 8 9
1999236N22292 1999 71 NA NA DENNIS 1999-09-08 15:00:00 ET 45.2406 -75.0091 main 0 0 P_____________ AL051999 45.2406 -75.0091 EX 20 1005 -4 8 317
1999236N22292 1999 71 NA NA DENNIS 1999-09-08 18:00:00 ET 45.5000 -75.6000 20 1005 hurdat_atl main 0 O_____________ hurdat_atl AL051999 45.5000 -75.6000 EX 20 1005 -4 10 302

IBTrACS Databaseについて

本データベースは、米国NOAAが公開する1842年以降の世界の熱帯低気圧のベストトラックデータアーカイブInternational Best Track Archive for Climate Stewardship (IBTrACS)を、ウェブで閲覧しやすい形式に変換したものです。

最終更新日:2021-10-19